Time;durP1;ratioP1;P1;durP2;ratioP2;P2;SDS_P1;SDS_P2;PMS_P1;PMS_P2;Temp;Humidity;BMP_temperature;BMP_pressure;BME280_temperature;BME280_humidity;BME280_pressure;Samples;Min_cycle;Max_cycle;Signal;HPM_P1;HPM_P2
2023/07/03 05:11:03;;;;;;;;;;;;;;;;;;5048844;28;19928;-45
2023/07/03 05:13:31;;;;;;;;;;;;;;;;;;5049057;28;19909;-45
2023/07/03 05:15:57;;;;;;;;;;;;;;;;;;5049801;28;20664;-44
2023/07/03 05:18:23;;;;;;;;;;;;;;;;;;5050654;28;19915;-45
2023/07/03 05:20:49;;;;;;;;;;;;;;;;;;5050949;28;19913;-44
2023/07/03 05:23:15;;;;;;;;;;;;;;;;;;5050533;28;19912;-47
2023/07/03 05:25:41;;;;;;;;;;;;;;;;;;5051005;28;19936;-46
2023/07/03 05:28:07;;;;;;;;;;;;;;;;;;5050529;28;20619;-45
2023/07/03 05:30:33;;;;;;;;;;;;;;;;;;5050400;28;19912;-44
2023/07/03 05:32:59;;;;;;;;;;;;;;;;;;5050652;28;19932;-45
2023/07/03 05:35:25;;;;;;;;;;;;;;;;;;5050461;28;19909;-45
2023/07/03 05:37:51;;;;;;;;;;;;;;;;;;5050093;28;19913;-44
2023/07/03 05:40:17;;;;;;;;;;;;;;;;;;5050515;28;20596;-49
2023/07/03 05:42:43;;;;;;;;;;;;;;;;;;5050451;28;20284;-48
2023/07/03 05:45:09;;;;;;;;;;;;;;;;;;5050190;28;19915;-44
2023/07/03 05:47:35;;;;;;;;;;;;;;;;;;5050110;28;19962;-45
2023/07/03 05:50:01;;;;;;;;;;;;;;;;;;5050211;28;19936;-47
2023/07/03 05:52:27;;;;;;;;;;;;;;;;;;5050339;28;19909;-44
2023/07/03 05:54:53;;;;;;;;;;;;;;;;;;5049846;28;19974;-46
2023/07/03 05:57:19;;;;;;;;;;;;;;;;;;5049974;28;19920;-44
2023/07/03 05:59:45;;;;;;;;;;;;;;;;;;5049928;28;19909;-45
2023/07/03 06:02:11;;;;;;;;;;;;;;;;;;5048265;28;20384;-46
2023/07/03 06:04:37;;;;;;;;;;;;;;;;;;5049987;28;19909;-45
2023/07/03 06:07:03;;;;;;;;;;;;;;;;;;5049971;28;19915;-47
2023/07/03 06:09:29;;;;;;;;;;;;;;;;;;5049986;28;19927;-45
2023/07/03 06:11:58;;;;;;;;;;;;;;;;;;5050225;28;20283;-44
2023/07/03 06:14:24;;;;;;;;;;;;;;;;;;5047910;28;19935;-45
2023/07/03 06:16:50;;;;;;;;;;;;;;;;;;5049040;28;19924;-44
2023/07/03 06:19:16;;;;;;;;;;;;;;;;;;5049413;28;19909;-45
2023/07/03 06:21:42;;;;;;;;;;;;;;;;;;5049508;28;19920;-46
2023/07/03 06:24:08;;;;;;;;;;;;;;;;;;5049284;28;19916;-45
2023/07/03 06:26:34;;;;;;;;;;;;;;;;;;5048287;28;19974;-45
2023/07/03 06:29:00;;;;;;;;;;;;;;;;;;5031785;28;19917;-45
2023/07/03 06:31:26;;;;;;;;;;;;;;;;;;5052877;28;19963;-45
2023/07/03 06:33:52;;;;;;;;;;;;;;;;;;5054646;28;19912;-45
2023/07/03 06:36:21;;;;;;;;;;;;;;;;;;5049095;28;20019;-45
2023/07/03 06:38:47;;;;;;;;;;;;;;;;;;5049355;28;20282;-44
2023/07/03 06:41:13;;;;;;;;;;;;;;;;;;5049285;28;19967;-44
2023/07/03 06:43:38;;;;;;;;;;;;;;;;;;5049269;28;20315;-48
2023/07/03 06:46:04;;;;;;;;;;;;;;;;;;5048919;28;20352;-45
2023/07/03 06:48:30;;;;;;;;;;;;;;;;;;5049095;28;19955;-45
2023/07/03 06:50:56;;;;;;;;;;;;;;;;;;5049252;28;19913;-46
2023/07/03 06:53:22;;;;;;;;;;;;;;;;;;5048237;28;19920;-43
2023/07/03 06:55:48;;;;;;;;;;;;;;;;;;5049307;28;19919;-44
2023/07/03 06:58:14;;;;;;;;;;;;;;;;;;5047101;28;19912;-45
2023/07/03 07:00:40;;;;;;;;;;;;;;;;;;5046840;28;19913;-44
2023/07/03 07:03:06;;;;;;;;;;;;;;;;;;5048555;28;19924;-44
2023/07/03 07:05:32;;;;;;;;;;;;;;;;;;5040662;28;20094;-45
2023/07/03 07:07:58;;;;;;;;;;;;;;;;;;5036311;28;19928;-44
2023/07/03 07:10:24;;;;;;;;;;;;;;;;;;5038103;28;19978;-45
2023/07/03 07:12:50;;;;;;;;;;;;;;;;;;5046637;28;19909;-47
2023/07/03 07:15:16;;;;;;;;;;;;;;;;;;5045471;28;20381;-45
2023/07/03 07:17:42;;;;;;;;;;;;;;;;;;5047781;28;19916;-47
2023/07/03 07:20:08;;;;;;;;;;;;;;;;;;5046929;28;19987;-46
2023/07/03 07:22:34;;;;;;;;;;;;;;;;;;5029220;28;19923;-44
2023/07/03 07:25:00;;;;;;;;;;;;;;;;;;5045344;28;19920;-44
2023/07/03 07:27:26;;;;;;;;;;;;;;;;;;5046417;28;19912;-44
2023/07/03 07:29:52;;;;;;;;;;;;;;;;;;5030854;28;19913;-45
2023/07/03 07:32:18;;;;;;;;;;;;;;;;;;5039980;28;19913;-47
2023/07/03 07:34:44;;;;;;;;;;;;;;;;;;5046553;28;19924;-45
2023/07/03 07:37:10;;;;;;;;;;;;;;;;;;5051440;28;19936;-48
2023/07/03 07:39:35;;;;;;;;;;;;;;;;;;5053947;28;19928;-45
2023/07/03 07:42:01;;;;;;;;;;;;;;;;;;5050223;28;19913;-47
2023/07/03 07:44:27;;;;;;;;;;;;;;;;;;5050006;28;19932;-46
2023/07/03 07:46:54;;;;;;;;;;;;;;;;;;5049148;28;20012;-45
2023/07/03 07:49:21;;;;;;;;;;;;;;;;;;5050678;28;19909;-45
2023/07/03 07:51:47;;;;;;;;;;;;;;;;;;5050226;28;19909;-44
2023/07/03 07:54:13;;;;;;;;;;;;;;;;;;5048806;28;19917;-45
2023/07/03 07:56:39;;;;;;;;;;;;;;;;;;5050967;28;19913;-48
2023/07/03 07:59:05;;;;;;;;;;;;;;;;;;5050038;28;19952;-46
2023/07/03 08:01:31;;;;;;;;;;;;;;;;;;5061560;28;19947;-45
2023/07/03 08:03:57;;;;;;;;;;;;;;;;;;5049838;28;19912;-48
2023/07/03 08:06:23;;;;;;;;;;;;;;;;;;5050364;28;19982;-45
2023/07/03 08:08:49;;;;;;;;;;;;;;;;;;5046769;28;19917;-45
2023/07/03 08:11:15;;;;;;;;;;;;;;;;;;5049948;28;20414;-45
2023/07/03 08:13:40;;;;;;;;;;;;;;;;;;5049068;28;19936;-44
2023/07/03 08:16:06;;;;;;;;;;;;;;;;;;5046872;28;19917;-47
2023/07/03 08:18:32;;;;;;;;;;;;;;;;;;5050377;28;19921;-45
2023/07/03 08:20:59;;;;;;;;;;;;;;;;;;5048764;28;19916;-45
2023/07/03 08:23:25;;;;;;;;;;;;;;;;;;5049821;28;19994;-48
2023/07/03 08:25:52;;;;;;;;;;;;;;;;;;5049293;28;19913;-47
2023/07/03 08:28:18;;;;;;;;;;;;;;;;;;5049306;28;20430;-44
2023/07/03 08:30:44;;;;;;;;;;;;;;;;;;5049353;28;20015;-45
2023/07/03 08:33:10;;;;;;;;;;;;;;;;;;5049563;28;19920;-45
2023/07/03 08:35:36;;;;;;;;;;;;;;;;;;5049545;28;19912;-46
2023/07/03 08:38:02;;;;;;;;;;;;;;;;;;5057283;28;19939;-45
2023/07/03 08:40:28;;;;;;;;;;;;;;;;;;5048915;28;20330;-44
2023/07/03 08:42:55;;;;;;;;;;;;;;;;;;5049442;28;19924;-45
2023/07/03 08:45:20;;;;;;;;;;;;;;;;;;5048398;28;19913;-45
2023/07/03 08:47:46;;;;;;;;;;;;;;;;;;5053614;28;20321;-45
2023/07/03 08:50:12;;;;;;;;;;;;;;;;;;5050904;28;19917;-44
2023/07/03 08:52:38;;;;;;;;;;;;;;;;;;5048879;28;19909;-45
2023/07/03 08:55:04;;;;;;;;;;;;;;;;;;5049142;28;19919;-47
2023/07/03 08:57:30;;;;;;;;;;;;;;;;;;5049284;28;19915;-45
2023/07/03 08:59:56;;;;;;;;;;;;;;;;;;5048153;28;19920;-45
2023/07/03 09:02:22;;;;;;;;;;;;;;;;;;5047740;28;19913;-46
2023/07/03 09:04:48;;;;;;;;;;;;;;;;;;5048836;28;20390;-46
2023/07/03 09:07:14;;;;;;;;;;;;;;;;;;5046217;28;20022;-45
2023/07/03 09:09:40;;;;;;;;;;;;;;;;;;5049199;28;19923;-46
2023/07/03 09:12:06;;;;;;;;;;;;;;;;;;5048433;28;19913;-45
2023/07/03 09:14:32;;;;;;;;;;;;;;;;;;5048893;28;19912;-46
2023/07/03 09:16:58;;;;;;;;;;;;;;;;;;5047843;28;19917;-45
2023/07/03 09:19:24;;;;;;;;;;;;;;;;;;5048190;28;19923;-45
2023/07/03 09:21:50;;;;;;;;;;;;;;;;;;5047858;28;20016;-46
2023/07/03 09:24:16;;;;;;;;;;;;;;;;;;5048176;28;19921;-46
2023/07/03 09:26:43;;;;;;;;;;;;;;;;;;5048830;28;20314;-48
2023/07/03 09:29:10;;;;;;;;;;;;;;;;;;5048141;28;19913;-47
2023/07/03 09:31:37;;;;;;;;;;;;;;;;;;5047197;28;19947;-45
2023/07/03 09:34:03;;;;;;;;;;;;;;;;;;5041335;28;19967;-46
2023/07/03 09:36:30;;;;;;;;;;;;;;;;;;5029660;28;19949;-45
2023/07/03 09:38:55;;;;;;;;;;;;;;;;;;5045605;28;19916;-44
2023/07/03 09:41:21;;;;;;;;;;;;;;;;;;5048248;28;19916;-47
2023/07/03 09:43:47;;;;;;;;;;;;;;;;;;5048244;28;20432;-48
2023/07/03 09:46:13;;;;;;;;;;;;;;;;;;5049332;28;19912;-46
2023/07/03 09:48:39;;;;;;;;;;;;;;;;;;5047507;28;20018;-45
2023/07/03 09:51:06;;;;;;;;;;;;;;;;;;5048740;28;19909;-45
2023/07/03 09:53:32;;;;;;;;;;;;;;;;;;5056782;28;20413;-48
2023/07/03 09:55:58;;;;;;;;;;;;;;;;;;5049386;28;19909;-45
2023/07/03 09:58:24;;;;;;;;;;;;;;;;;;5049533;28;19909;-46
2023/07/03 10:00:50;;;;;;;;;;;;;;;;;;5049148;28;19920;-46
2023/07/03 10:03:16;;;;;;;;;;;;;;;;;;5049172;28;19951;-48
2023/07/03 10:05:44;;;;;;;;;;;;;;;;;;5047163;28;20220;-46
2023/07/03 10:08:10;;;;;;;;;;;;;;;;;;5047146;28;19917;-46
2023/07/03 10:10:36;;;;;;;;;;;;;;;;;;5048918;28;19921;-45
2023/07/03 10:13:02;;;;;;;;;;;;;;;;;;5048396;28;19909;-45
2023/07/03 10:15:28;;;;;;;;;;;;;;;;;;5047752;28;19920;-47
2023/07/03 10:17:54;;;;;;;;;;;;;;;;;;5030274;28;19917;-45
2023/07/03 10:20:20;;;;;;;;;;;;;;;;;;5046623;28;19917;-46
2023/07/03 10:22:46;;;;;;;;;;;;;;;;;;5048644;28;20068;-45
2023/07/03 10:25:12;;;;;;;;;;;;;;;;;;5055866;28;19948;-46
2023/07/03 10:27:38;;;;;;;;;;;;;;;;;;5052938;28;20379;-44
2023/07/03 10:30:04;;;;;;;;;;;;;;;;;;5042452;28;19917;-45
2023/07/03 10:32:30;;;;;;;;;;;;;;;;;;5046433;28;19920;-48
2023/07/03 10:34:57;;;;;;;;;;;;;;;;;;5047805;28;19919;-45
2023/07/03 10:37:23;;;;;;;;;;;;;;;;;;5047626;28;19924;-45
2023/07/03 10:39:49;;;;;;;;;;;;;;;;;;5046954;28;19983;-48
2023/07/03 10:42:16;;;;;;;;;;;;;;;;;;5046747;28;20449;-47
2023/07/03 10:44:42;;;;;;;;;;;;;;;;;;5047715;28;19913;-44
2023/07/03 10:47:07;;;;;;;;;;;;;;;;;;5051391;28;20342;-48
2023/07/03 10:49:33;;;;;;;;;;;;;;;;;;5047973;28;19974;-48
2023/07/03 10:52:00;;;;;;;;;;;;;;;;;;5048039;28;19909;-46
2023/07/03 10:54:26;;;;;;;;;;;;;;;;;;5045999;28;19959;-47
2023/07/03 10:56:52;;;;;;;;;;;;;;;;;;5046951;28;19955;-45
2023/07/03 10:59:19;;;;;;;;;;;;;;;;;;5046419;28;19936;-44
2023/07/03 11:01:46;;;;;;;;;;;;;;;;;;5047160;28;19964;-45
2023/07/03 11:04:12;;;;;;;;;;;;;;;;;;5046042;28;19917;-45
2023/07/03 11:06:38;;;;;;;;;;;;;;;;;;5044868;28;19978;-45
2023/07/03 11:09:03;;;;;;;;;;;;;;;;;;5047192;28;19917;-46
2023/07/03 11:11:29;;;;;;;;;;;;;;;;;;5026562;28;19956;-45
2023/07/03 11:13:55;;;;;;;;;;;;;;;;;;5026947;28;19917;-45
2023/07/03 11:16:21;;;;;;;;;;;;;;;;;;5037064;28;19954;-44
2023/07/03 11:18:48;;;;;;;;;;;;;;;;;;5039728;28;19921;-45
2023/07/03 11:21:14;;;;;;;;;;;;;;;;;;5030522;28;19917;-45
2023/07/03 11:23:40;;;;;;;;;;;;;;;;;;5026759;28;20398;-45
2023/07/03 11:26:06;;;;;;;;;;;;;;;;;;5025902;28;19925;-45
2023/07/03 11:28:32;;;;;;;;;;;;;;;;;;5022771;28;19929;-47
2023/07/03 11:30:58;;;;;;;;;;;;;;;;;;5028784;28;19967;-45
2023/07/03 11:33:24;;;;;;;;;;;;;;;;;;5025100;28;19917;-47
2023/07/03 11:35:51;;;;;;;;;;;;;;;;;;5019229;28;20060;-45
2023/07/03 11:38:18;;;;;;;;;;;;;;;;;;5024752;28;20012;-46
2023/07/03 11:40:45;;;;;;;;;;;;;;;;;;5034403;28;19913;-45
2023/07/03 11:43:12;;;;;;;;;;;;;;;;;;5010720;28;20399;-46
2023/07/03 11:45:39;;;;;;;;;;;;;;;;;;5036162;28;19960;-46
2023/07/03 11:48:05;;;;;;;;;;;;;;;;;;5029365;28;19919;-45
2023/07/03 11:50:31;;;;;;;;;;;;;;;;;;5023044;28;19917;-45
2023/07/03 11:52:57;;;;;;;;;;;;;;;;;;5030888;28;19936;-45
2023/07/03 11:55:24;;;;;;;;;;;;;;;;;;5028201;28;19988;-46
2023/07/03 11:57:50;;;;;;;;;;;;;;;;;;5019159;28;19925;-45
2023/07/03 12:00:16;;;;;;;;;;;;;;;;;;5020876;28;19922;-45
2023/07/03 12:02:42;;;;;;;;;;;;;;;;;;5025520;28;19924;-45
2023/07/03 12:05:09;;;;;;;;;;;;;;;;;;5004417;28;19917;-45
2023/07/03 12:07:36;;;;;;;;;;;;;;;;;;5029572;28;19924;-45
2023/07/03 12:10:02;;;;;;;;;;;;;;;;;;5029183;28;20442;-48
2023/07/03 12:12:30;;;;;;;;;;;;;;;;;;5033086;28;19920;-47
2023/07/03 12:14:56;;;;;;;;;;;;;;;;;;5022944;28;20011;-45
2023/07/03 12:17:23;;;;;;;;;;;;;;;;;;5022495;28;20003;-44
2023/07/03 12:19:48;;;;;;;;;;;;;;;;;;5025919;28;19913;-45
2023/07/03 12:22:15;;;;;;;;;;;;;;;;;;5018140;28;19923;-45
2023/07/03 12:24:42;;;;;;;;;;;;;;;;;;5022654;28;20584;-45
2023/07/03 12:27:08;;;;;;;;;;;;;;;;;;5030322;28;20170;-46
2023/07/03 12:29:35;;;;;;;;;;;;;;;;;;4996675;28;19917;-45
2023/07/03 12:32:10;;;;;;;;;;;;;;;;;;5030520;28;20413;-45
2023/07/03 12:34:36;;;;;;;;;;;;;;;;;;5043461;28;19951;-45
2023/07/03 12:37:02;;;;;;;;;;;;;;;;;;5035273;28;19917;-44
2023/07/03 12:39:28;;;;;;;;;;;;;;;;;;5005391;28;20384;-44
2023/07/03 12:41:54;;;;;;;;;;;;;;;;;;5027752;28;19917;-46
2023/07/03 12:44:20;;;;;;;;;;;;;;;;;;5025087;28;20395;-44
2023/07/03 12:46:46;;;;;;;;;;;;;;;;;;5036875;28;20361;-46
2023/07/03 12:49:12;;;;;;;;;;;;;;;;;;5036439;28;19924;-45
2023/07/03 12:51:39;;;;;;;;;;;;;;;;;;5032597;28;19913;-46
2023/07/03 12:54:05;;;;;;;;;;;;;;;;;;5027988;28;20265;-44
2023/07/03 12:56:31;;;;;;;;;;;;;;;;;;5032229;28;20343;-45
2023/07/03 12:58:57;;;;;;;;;;;;;;;;;;5030957;28;19925;-46
2023/07/03 13:01:24;;;;;;;;;;;;;;;;;;5031091;28;20675;-46
2023/07/03 13:03:51;;;;;;;;;;;;;;;;;;5037742;28;19917;-45
2023/07/03 13:06:17;;;;;;;;;;;;;;;;;;5027232;28;20347;-45
2023/07/03 13:08:44;;;;;;;;;;;;;;;;;;5027189;28;19924;-44
2023/07/03 13:11:10;;;;;;;;;;;;;;;;;;5024671;28;19978;-45
2023/07/03 13:13:36;;;;;;;;;;;;;;;;;;5024251;28;20005;-44
2023/07/03 13:16:02;;;;;;;;;;;;;;;;;;5025301;28;20317;-46
2023/07/03 13:18:28;;;;;;;;;;;;;;;;;;5023911;28;19936;-45
2023/07/03 13:20:54;;;;;;;;;;;;;;;;;;5022688;28;20034;-45
2023/07/03 13:23:20;;;;;;;;;;;;;;;;;;5005552;28;19990;-45
2023/07/03 13:25:47;;;;;;;;;;;;;;;;;;5023078;28;19960;-46
2023/07/03 13:28:13;;;;;;;;;;;;;;;;;;5022398;28;19913;-45
2023/07/03 13:30:39;;;;;;;;;;;;;;;;;;5020148;28;20388;-47
2023/07/03 13:33:06;;;;;;;;;;;;;;;;;;5023800;28;19963;-46
2023/07/03 13:35:32;;;;;;;;;;;;;;;;;;5025811;28;19921;-45
2023/07/03 13:37:59;;;;;;;;;;;;;;;;;;5024939;28;19946;-45
2023/07/03 13:40:24;;;;;;;;;;;;;;;;;;5021434;28;19917;-45
2023/07/03 13:42:50;;;;;;;;;;;;;;;;;;5022659;28;19940;-45
2023/07/03 13:45:17;;;;;;;;;;;;;;;;;;5020188;28;19976;-46
2023/07/03 13:47:43;;;;;;;;;;;;;;;;;;5017583;28;19930;-46
2023/07/03 13:50:09;;;;;;;;;;;;;;;;;;5024694;28;20008;-45
2023/07/03 13:52:36;;;;;;;;;;;;;;;;;;5024673;28;19913;-44
2023/07/03 13:55:02;;;;;;;;;;;;;;;;;;5019664;28;19955;-46
2023/07/03 13:57:28;;;;;;;;;;;;;;;;;;5022887;28;19921;-46
2023/07/03 13:59:55;;;;;;;;;;;;;;;;;;5023737;28;19917;-45
2023/07/03 14:02:22;;;;;;;;;;;;;;;;;;5028690;28;19976;-46
2023/07/03 14:04:48;;;;;;;;;;;;;;;;;;5036184;28;19927;-45
2023/07/03 14:07:14;;;;;;;;;;;;;;;;;;5023053;28;19924;-45
2023/07/03 14:09:40;;;;;;;;;;;;;;;;;;5029259;28;19962;-45
2023/07/03 14:12:07;;;;;;;;;;;;;;;;;;5044312;28;19917;-46
2023/07/03 14:14:32;;;;;;;;;;;;;;;;;;5041780;28;19917;-47
2023/07/03 14:16:58;;;;;;;;;;;;;;;;;;5042032;28;19912;-45
2023/07/03 14:19:24;;;;;;;;;;;;;;;;;;5041765;28;19970;-45
2023/07/03 14:21:51;;;;;;;;;;;;;;;;;;5042798;28;20072;-45
2023/07/03 14:24:17;;;;;;;;;;;;;;;;;;5038542;28;19966;-45
2023/07/03 14:26:44;;;;;;;;;;;;;;;;;;5040735;28;19979;-46
2023/07/03 14:29:10;;;;;;;;;;;;;;;;;;5042429;28;19921;-45
2023/07/03 14:31:36;;;;;;;;;;;;;;;;;;5042355;28;19920;-45
2023/07/03 14:34:02;;;;;;;;;;;;;;;;;;5030779;28;19923;-46
2023/07/03 14:36:28;;;;;;;;;;;;;;;;;;5044038;28;19919;-47
2023/07/03 14:38:55;;;;;;;;;;;;;;;;;;5043332;28;19917;-46
2023/07/03 14:41:21;;;;;;;;;;;;;;;;;;5039008;28;19999;-46
2023/07/03 14:43:47;;;;;;;;;;;;;;;;;;5045181;28;19917;-46
2023/07/03 14:46:14;;;;;;;;;;;;;;;;;;5043450;28;19908;-47
2023/07/03 14:48:40;;;;;;;;;;;;;;;;;;5044278;28;19909;-45
2023/07/03 14:51:06;;;;;;;;;;;;;;;;;;5043936;28;20381;-46
2023/07/03 14:53:32;;;;;;;;;;;;;;;;;;5043261;28;19925;-47
2023/07/03 14:55:58;;;;;;;;;;;;;;;;;;5040738;28;19952;-46
2023/07/03 14:58:24;;;;;;;;;;;;;;;;;;5040539;28;20449;-46
2023/07/03 15:00:50;;;;;;;;;;;;;;;;;;5041310;28;19916;-46
2023/07/03 15:03:17;;;;;;;;;;;;;;;;;;5041317;28;20405;-47
2023/07/03 15:05:43;;;;;;;;;;;;;;;;;;5041069;28;20010;-45
2023/07/03 15:08:09;;;;;;;;;;;;;;;;;;5045778;28;19959;-47
2023/07/03 15:10:36;;;;;;;;;;;;;;;;;;5040272;28;19927;-46
2023/07/03 15:13:02;;;;;;;;;;;;;;;;;;5042652;28;19920;-46
2023/07/03 15:15:27;;;;;;;;;;;;;;;;;;5042993;28;19923;-46
2023/07/03 15:17:54;;;;;;;;;;;;;;;;;;5041381;28;20337;-46
2023/07/03 15:20:21;;;;;;;;;;;;;;;;;;5039684;28;20330;-45
2023/07/03 15:22:47;;;;;;;;;;;;;;;;;;5044292;28;20007;-49
2023/07/03 15:25:13;;;;;;;;;;;;;;;;;;5043439;28;20008;-45
2023/07/03 15:27:40;;;;;;;;;;;;;;;;;;5041385;28;19919;-46
2023/07/03 15:30:06;;;;;;;;;;;;;;;;;;5040419;28;20023;-46
2023/07/03 15:32:32;;;;;;;;;;;;;;;;;;5042235;28;20355;-46
2023/07/03 15:34:58;;;;;;;;;;;;;;;;;;5039562;28;19921;-46
2023/07/03 15:37:23;;;;;;;;;;;;;;;;;;5039104;28;19920;-47
2023/07/03 15:39:50;;;;;;;;;;;;;;;;;;5041364;28;19912;-45
2023/07/03 15:42:16;;;;;;;;;;;;;;;;;;5041879;28;19970;-46
2023/07/03 15:44:42;;;;;;;;;;;;;;;;;;5044354;28;19913;-46
2023/07/03 15:47:08;;;;;;;;;;;;;;;;;;5042852;28;20322;-46
2023/07/03 15:49:37;;;;;;;;;;;;;;;;;;5040680;28;20000;-46
2023/07/03 15:52:04;;;;;;;;;;;;;;;;;;5040685;28;19927;-45
2023/07/03 15:54:30;;;;;;;;;;;;;;;;;;5034517;28;19920;-49
2023/07/03 15:56:56;;;;;;;;;;;;;;;;;;5043554;28;19916;-47
2023/07/03 15:59:21;;;;;;;;;;;;;;;;;;5044747;28;19916;-46
2023/07/03 16:01:49;;;;;;;;;;;;;;;;;;5043521;28;19923;-46
2023/07/03 16:04:15;;;;;;;;;;;;;;;;;;5052564;28;19924;-46
2023/07/03 16:06:42;;;;;;;;;;;;;;;;;;5044119;28;19966;-46
2023/07/03 16:09:08;;;;;;;;;;;;;;;;;;5045917;28;20426;-46
2023/07/03 16:11:36;;;;;;;;;;;;;;;;;;5047398;28;19917;-45
2023/07/03 16:14:03;;;;;;;;;;;;;;;;;;5044423;28;19917;-46
2023/07/03 16:16:29;;;;;;;;;;;;;;;;;;5042190;28;19920;-46
2023/07/03 16:18:57;;;;;;;;;;;;;;;;;;5044252;28;19917;-46
2023/07/03 16:21:23;;;;;;;;;;;;;;;;;;5047283;28;19936;-47
2023/07/03 16:23:49;;;;;;;;;;;;;;;;;;5043362;28;19917;-46
2023/07/03 16:26:16;;;;;;;;;;;;;;;;;;5041077;28;19967;-47
2023/07/03 16:28:43;;;;;;;;;;;;;;;;;;5044899;28;19916;-49
2023/07/03 16:31:10;;;;;;;;;;;;;;;;;;5045591;28;20432;-46
2023/07/03 16:33:36;;;;;;;;;;;;;;;;;;5044406;28;20126;-47
2023/07/03 16:36:02;;;;;;;;;;;;;;;;;;5042541;28;19919;-46
2023/07/03 16:38:28;;;;;;;;;;;;;;;;;;5044973;28;19917;-46
2023/07/03 16:40:54;;;;;;;;;;;;;;;;;;5044425;28;19952;-47
2023/07/03 16:43:20;;;;;;;;;;;;;;;;;;5047580;28;19967;-46
2023/07/03 16:45:46;;;;;;;;;;;;;;;;;;5043214;28;19921;-47
2023/07/03 16:48:12;;;;;;;;;;;;;;;;;;5043983;28;19940;-46
2023/07/03 16:50:38;;;;;;;;;;;;;;;;;;5037299;28;19917;-46
2023/07/03 16:53:04;;;;;;;;;;;;;;;;;;5048083;28;20022;-46
2023/07/03 16:55:31;;;;;;;;;;;;;;;;;;5045776;28;20384;-47
2023/07/03 16:57:57;;;;;;;;;;;;;;;;;;5047303;28;19912;-48
2023/07/03 17:00:23;;;;;;;;;;;;;;;;;;5048878;28;19958;-47
2023/07/03 17:02:49;;;;;;;;;;;;;;;;;;5046985;28;19982;-48
2023/07/03 17:05:16;;;;;;;;;;;;;;;;;;5044997;28;20463;-46
2023/07/03 17:07:41;;;;;;;;;;;;;;;;;;5049466;28;19952;-48
2023/07/03 17:10:07;;;;;;;;;;;;;;;;;;5046134;28;20002;-47
2023/07/03 17:12:33;;;;;;;;;;;;;;;;;;5047503;28;20478;-49
2023/07/03 17:14:59;;;;;;;;;;;;;;;;;;5049553;28;19913;-49
2023/07/03 17:17:26;;;;;;;;;;;;;;;;;;5050188;28;19917;-47
2023/07/03 17:19:52;;;;;;;;;;;;;;;;;;5049432;28;19920;-46
2023/07/03 17:22:18;;;;;;;;;;;;;;;;;;5047723;28;19916;-47
2023/07/03 17:24:44;;;;;;;;;;;;;;;;;;5049873;28;20011;-47
2023/07/03 17:27:10;;;;;;;;;;;;;;;;;;5049870;28;20383;-47
2023/07/03 17:29:36;;;;;;;;;;;;;;;;;;5049044;28;19952;-46
2023/07/03 17:32:02;;;;;;;;;;;;;;;;;;5049729;28;19913;-47
2023/07/03 17:34:28;;;;;;;;;;;;;;;;;;5051750;28;20003;-48
2023/07/03 17:36:54;;;;;;;;;;;;;;;;;;5048983;28;19913;-48
2023/07/03 17:39:20;;;;;;;;;;;;;;;;;;5046640;28;20303;-48
2023/07/03 17:41:46;;;;;;;;;;;;;;;;;;5064378;28;19916;-47
2023/07/03 17:44:12;;;;;;;;;;;;;;;;;;5047784;28;20011;-49
2023/07/03 17:46:39;;;;;;;;;;;;;;;;;;5047953;28;19978;-47
2023/07/03 17:49:05;;;;;;;;;;;;;;;;;;5052068;28;19920;-47
2023/07/03 17:51:33;;;;;;;;;;;;;;;;;;5045063;28;19952;-47
2023/07/03 17:54:00;;;;;;;;;;;;;;;;;;5044549;28;19917;-46
2023/07/03 17:56:26;;;;;;;;;;;;;;;;;;5047512;28;19920;-46
2023/07/03 17:58:52;;;;;;;;;;;;;;;;;;5050244;28;19959;-47
2023/07/03 18:01:18;;;;;;;;;;;;;;;;;;5046878;28;19913;-50
2023/07/03 18:03:46;;;;;;;;;;;;;;;;;;5047259;28;19917;-47
2023/07/03 18:06:12;;;;;;;;;;;;;;;;;;5038852;28;19913;-47
2023/07/03 18:08:38;;;;;;;;;;;;;;;;;;5041072;28;19937;-47
2023/07/03 18:11:04;;;;;;;;;;;;;;;;;;5043494;28;19921;-47
2023/07/03 18:13:30;;;;;;;;;;;;;;;;;;5041336;28;19978;-47
2023/07/03 18:15:56;;;;;;;;;;;;;;;;;;5039102;28;20036;-46
2023/07/03 18:18:22;;;;;;;;;;;;;;;;;;5042438;28;19913;-48
2023/07/03 18:20:48;;;;;;;;;;;;;;;;;;5039716;28;20371;-47
2023/07/03 18:23:14;;;;;;;;;;;;;;;;;;5039458;28;20371;-48
2023/07/03 18:25:40;;;;;;;;;;;;;;;;;;5038741;28;19913;-49
2023/07/03 18:28:06;;;;;;;;;;;;;;;;;;5043044;28;20287;-46
2023/07/03 18:30:32;;;;;;;;;;;;;;;;;;5040455;28;19913;-47
2023/07/03 18:32:58;;;;;;;;;;;;;;;;;;5042781;28;19924;-47
2023/07/03 18:35:25;;;;;;;;;;;;;;;;;;5043222;28;19917;-49
2023/07/03 18:37:52;;;;;;;;;;;;;;;;;;5045405;28;19924;-48
2023/07/03 18:40:18;;;;;;;;;;;;;;;;;;5044489;28;19909;-46
2023/07/03 18:42:45;;;;;;;;;;;;;;;;;;5044034;28;20388;-47
2023/07/03 18:45:10;;;;;;;;;;;;;;;;;;5043803;28;20445;-46
2023/07/03 18:47:36;;;;;;;;;;;;;;;;;;5042102;28;19921;-47
2023/07/03 18:50:03;;;;;;;;;;;;;;;;;;5040806;28;20209;-48
2023/07/03 18:52:29;;;;;;;;;;;;;;;;;;5039449;28;20005;-49
2023/07/03 18:54:55;;;;;;;;;;;;;;;;;;5041622;28;20438;-47
2023/07/03 18:57:21;;;;;;;;;;;;;;;;;;5040805;28;19955;-46
2023/07/03 18:59:47;;;;;;;;;;;;;;;;;;5043637;28;19913;-47
2023/07/03 19:02:15;;;;;;;;;;;;;;;;;;5043474;28;20337;-48
2023/07/03 19:04:42;;;;;;;;;;;;;;;;;;5042481;28;19917;-49
2023/07/03 19:07:08;;;;;;;;;;;;;;;;;;5039922;28;20398;-47
2023/07/03 19:09:35;;;;;;;;;;;;;;;;;;5041290;28;19917;-47
2023/07/03 19:12:01;;;;;;;;;;;;;;;;;;5043715;28;19913;-47
2023/07/03 19:14:27;;;;;;;;;;;;;;;;;;5045208;28;20284;-49
2023/07/03 19:16:53;;;;;;;;;;;;;;;;;;5039904;28;19920;-50
2023/07/03 19:19:20;;;;;;;;;;;;;;;;;;5040298;28;20071;-48
2023/07/03 19:21:46;;;;;;;;;;;;;;;;;;5044370;28;19924;-46
2023/07/03 19:24:12;;;;;;;;;;;;;;;;;;5040583;28;19916;-47
2023/07/03 19:26:39;;;;;;;;;;;;;;;;;;5043863;28;19916;-48
2023/07/03 19:29:06;;;;;;;;;;;;;;;;;;5043251;28;19968;-46
2023/07/03 19:31:32;;;;;;;;;;;;;;;;;;5044166;28;19920;-49
2023/07/03 19:33:59;;;;;;;;;;;;;;;;;;5045044;28;20280;-47
2023/07/03 19:36:26;;;;;;;;;;;;;;;;;;5046661;28;20066;-47
2023/07/03 19:38:52;;;;;;;;;;;;;;;;;;5046505;28;20344;-49
2023/07/03 19:41:19;;;;;;;;;;;;;;;;;;5046298;28;20384;-47
2023/07/03 19:43:45;;;;;;;;;;;;;;;;;;5045409;28;19920;-48
2023/07/03 19:46:12;;;;;;;;;;;;;;;;;;5038329;28;19924;-46
2023/07/03 19:48:38;;;;;;;;;;;;;;;;;;5045916;28;19913;-46
2023/07/03 19:51:05;;;;;;;;;;;;;;;;;;5045675;28;19913;-46
2023/07/03 19:53:32;;;;;;;;;;;;;;;;;;5045614;28;19913;-47
2023/07/03 19:55:59;;;;;;;;;;;;;;;;;;5046600;28;19955;-46
2023/07/03 19:58:27;;;;;;;;;;;;;;;;;;5046047;28;19912;-46
2023/07/03 20:00:53;;;;;;;;;;;;;;;;;;5043335;28;19975;-46
2023/07/03 20:03:19;;;;;;;;;;;;;;;;;;5043939;28;19921;-46
2023/07/03 20:05:47;;;;;;;;;;;;;;;;;;5045478;28;20346;-49
2023/07/03 20:08:14;;;;;;;;;;;;;;;;;;5047023;28;19958;-47
2023/07/03 20:10:40;;;;;;;;;;;;;;;;;;5045991;28;20051;-49
2023/07/03 20:13:06;;;;;;;;;;;;;;;;;;5045255;28;19924;-47
2023/07/03 20:15:32;;;;;;;;;;;;;;;;;;5046800;28;19952;-49
2023/07/03 20:17:58;;;;;;;;;;;;;;;;;;5047276;28;19934;-47
2023/07/03 20:20:24;;;;;;;;;;;;;;;;;;5045360;28;20669;-49
2023/07/03 20:22:50;;;;;;;;;;;;;;;;;;5028688;28;19979;-47
2023/07/03 20:25:17;;;;;;;;;;;;;;;;;;5047450;28;20350;-48
2023/07/03 20:27:43;;;;;;;;;;;;;;;;;;5029431;28;20411;-48
2023/07/03 20:30:09;;;;;;;;;;;;;;;;;;5047707;28;19967;-47
2023/07/03 20:32:36;;;;;;;;;;;;;;;;;;5046500;28;20004;-47
2023/07/03 20:35:02;;;;;;;;;;;;;;;;;;5046082;28;19908;-47
2023/07/03 20:37:29;;;;;;;;;;;;;;;;;;5048210;28;19919;-46
2023/07/03 20:39:56;;;;;;;;;;;;;;;;;;5044349;28;19956;-47
2023/07/03 20:42:21;;;;;;;;;;;;;;;;;;5041971;28;19926;-47
2023/07/03 20:44:49;;;;;;;;;;;;;;;;;;5045336;28;19916;-46
2023/07/03 20:47:15;;;;;;;;;;;;;;;;;;5047060;28;19961;-46
2023/07/03 20:49:41;;;;;;;;;;;;;;;;;;5046698;28;20347;-47
2023/07/03 20:52:08;;;;;;;;;;;;;;;;;;5047429;28;19916;-47
2023/07/03 20:54:37;;;;;;;;;;;;;;;;;;5047108;28;19936;-46
2023/07/03 20:57:03;;;;;;;;;;;;;;;;;;5046773;28;19919;-47
2023/07/03 20:59:29;;;;;;;;;;;;;;;;;;5047450;28;19909;-46
2023/07/03 21:01:55;;;;;;;;;;;;;;;;;;5047100;28;19919;-47
2023/07/03 21:04:21;;;;;;;;;;;;;;;;;;5046280;28;19971;-46
2023/07/03 21:06:47;;;;;;;;;;;;;;;;;;5046583;28;19909;-47
2023/07/03 21:09:14;;;;;;;;;;;;;;;;;;5046340;28;19905;-46
2023/07/03 21:11:42;;;;;;;;;;;;;;;;;;5046749;28;19923;-46
2023/07/03 21:14:08;;;;;;;;;;;;;;;;;;5046621;28;20424;-48
2023/07/03 21:16:35;;;;;;;;;;;;;;;;;;5044928;28;19913;-48
2023/07/03 21:19:01;;;;;;;;;;;;;;;;;;5046416;28;19951;-46
2023/07/03 21:21:30;;;;;;;;;;;;;;;;;;5046701;28;19940;-46
2023/07/03 21:23:57;;;;;;;;;;;;;;;;;;5047152;28;20006;-46
2023/07/03 21:26:24;;;;;;;;;;;;;;;;;;5046350;28;20269;-48
2023/07/03 21:28:49;;;;;;;;;;;;;;;;;;5046481;28;19959;-46
2023/07/03 21:31:16;;;;;;;;;;;;;;;;;;5046184;28;19963;-46
2023/07/03 21:33:43;;;;;;;;;;;;;;;;;;5046147;28;19988;-47
2023/07/03 21:36:10;;;;;;;;;;;;;;;;;;5045856;28;20343;-47
2023/07/03 21:38:36;;;;;;;;;;;;;;;;;;5046397;28;19986;-47
2023/07/03 21:41:03;;;;;;;;;;;;;;;;;;5046101;28;19951;-47
2023/07/03 21:43:30;;;;;;;;;;;;;;;;;;5046565;28;19912;-47
2023/07/03 21:45:57;;;;;;;;;;;;;;;;;;5046746;28;20315;-47
2023/07/03 21:48:23;;;;;;;;;;;;;;;;;;5045968;28;19913;-46